createdAt,value
2022-08-04T00:00:09.542Z,96915.63
2022-08-04T00:02:53.555Z,96913.47
2022-08-04T00:05:31.101Z,96902.78
2022-08-04T00:08:10.310Z,96908.25
2022-08-04T00:10:39.651Z,96905.47
2022-08-04T00:13:07.466Z,96904.00
2022-08-04T00:15:34.708Z,96901.81
2022-08-04T00:18:04.712Z,96903.22
2022-08-04T00:20:33.814Z,96902.59
2022-08-04T00:23:01.983Z,96911.72
2022-08-04T00:25:29.190Z,96922.09
2022-08-04T00:27:55.917Z,96916.47
2022-08-04T00:30:22.757Z,96910.91
2022-08-04T00:32:49.802Z,96910.16
2022-08-04T00:35:17.369Z,96909.38
2022-08-04T00:37:47.501Z,96909.25
2022-08-04T00:40:19.567Z,96913.69
2022-08-04T00:42:59.396Z,96919.88
2022-08-04T00:46:15.852Z,96919.25
2022-08-04T00:48:57.119Z,96917.75
2022-08-04T00:51:31.550Z,96917.72
2022-08-04T00:54:26.522Z,96909.09
2022-08-04T00:57:04.352Z,96908.09
2022-08-04T00:59:53.099Z,96919.06
2022-08-04T01:02:41.160Z,96911.97
2022-08-04T01:05:21.555Z,96914.00
2022-08-04T01:08:09.344Z,96916.00
2022-08-04T01:10:53.670Z,96908.97
2022-08-04T01:13:42.080Z,96915.19
2022-08-04T01:16:11.389Z,96910.88
2022-08-04T01:18:56.554Z,96906.00
2022-08-04T01:22:05.379Z,96916.22
2022-08-04T01:24:56.934Z,96909.16
2022-08-04T01:27:49.255Z,96903.50
2022-08-04T01:30:16.933Z,96902.09
2022-08-04T01:32:54.422Z,96905.66
2022-08-04T01:35:54.611Z,96913.28
2022-08-04T01:38:21.161Z,96904.25
2022-08-04T01:40:54.265Z,96909.84
2022-08-04T01:43:21.520Z,96911.34
2022-08-04T01:45:56.095Z,96909.94
2022-08-04T01:48:25.141Z,96907.78
2022-08-04T01:50:58.252Z,96902.09
2022-08-04T01:53:32.396Z,96906.16
2022-08-04T01:56:01.310Z,96899.03
2022-08-04T01:58:30.113Z,96905.78
2022-08-04T02:01:08.292Z,96903.69
2022-08-04T02:04:18.226Z,96904.31
2022-08-04T02:06:32.916Z,96907.16
2022-08-04T02:09:24.772Z,96904.25
2022-08-04T02:12:04.326Z,96910.94
2022-08-04T02:14:59.128Z,96901.06
2022-08-04T02:17:32.653Z,96910.69
2022-08-04T02:20:07.350Z,96907.03
2022-08-04T02:22:38.897Z,96913.22
2022-08-04T02:25:11.330Z,96911.09
2022-08-04T02:28:15.534Z,96913.91
2022-08-04T02:31:06.538Z,96906.91
2022-08-04T02:33:39.020Z,96909.56
2022-08-04T02:36:07.104Z,96901.09
2022-08-04T02:38:52.710Z,96903.81
2022-08-04T02:41:20.327Z,96894.03
2022-08-04T02:43:51.229Z,96892.63
2022-08-04T02:46:20.858Z,96893.25
2022-08-04T02:48:49.420Z,96901.59
2022-08-04T02:51:20.039Z,96893.22
2022-08-04T02:53:48.051Z,96895.34
2022-08-04T02:56:16.191Z,96891.16
2022-08-04T02:58:43.674Z,96893.81
2022-08-04T03:01:10.579Z,96884.69
2022-08-04T03:03:47.902Z,96880.44
2022-08-04T03:06:54.494Z,96883.34
2022-08-04T03:09:57.794Z,96884.09
2022-08-04T03:12:52.040Z,96884.75
2022-08-04T03:15:56.228Z,96886.59
2022-08-04T03:18:46.573Z,96894.13
2022-08-04T03:21:31.433Z,96883.03
2022-08-04T03:24:19.966Z,96885.50
2022-08-04T03:27:07.826Z,96879.09
2022-08-04T03:29:47.967Z,96883.19
2022-08-04T03:32:45.310Z,96888.03
2022-08-04T03:35:40.858Z,96882.47
2022-08-04T03:38:11.749Z,96886.66
2022-08-04T03:41:11.185Z,96896.38
2022-08-04T03:44:10.703Z,96885.16
2022-08-04T03:46:46.491Z,96891.22
2022-08-04T03:49:41.513Z,96895.13
2022-08-04T03:52:32.470Z,96893.66
2022-08-04T03:55:20.094Z,96891.63
2022-08-04T03:58:04.997Z,96895.94
2022-08-04T04:00:41.291Z,96886.84
2022-08-04T04:03:32.278Z,96890.19
2022-08-04T04:06:02.310Z,96887.28
2022-08-04T04:08:51.823Z,96890.66
2022-08-04T04:11:30.514Z,96891.19
2022-08-04T04:14:10.421Z,96897.34
2022-08-04T04:17:04.170Z,96896.75
2022-08-04T04:19:48.625Z,96893.75
2022-08-04T04:22:52.066Z,96893.66
2022-08-04T04:25:43.403Z,96889.41
2022-08-04T04:28:45.304Z,96894.19
2022-08-04T04:31:22.557Z,96896.84
2022-08-04T04:34:09.972Z,96896.09
2022-08-04T04:37:04.411Z,96904.41
2022-08-04T04:39:40.367Z,96903.00
2022-08-04T04:42:42.172Z,96909.25
2022-08-04T04:45:11.923Z,96906.56
2022-08-04T04:48:08.428Z,96907.91
2022-08-04T04:50:58.786Z,96908.63
2022-08-04T04:53:47.165Z,96911.31
2022-08-04T04:56:37.406Z,96911.94
2022-08-04T04:59:09.125Z,96918.13
2022-08-04T05:02:06.601Z,96918.19
2022-08-04T05:04:36.082Z,96921.06
2022-08-04T05:07:21.375Z,96924.63
2022-08-04T05:10:17.649Z,96925.56
2022-08-04T05:14:34.917Z,96919.41
2022-08-04T05:15:48.231Z,96928.59
2022-08-04T05:18:22.785Z,96927.19
2022-08-04T05:20:55.622Z,96931.34
2022-08-04T05:23:26.133Z,96930.03
2022-08-04T05:26:08.806Z,96935.69
2022-08-04T05:28:43.747Z,96935.06
2022-08-04T05:31:12.601Z,96937.91
2022-08-04T05:33:41.051Z,96929.69
2022-08-04T05:36:20.631Z,96937.75
2022-08-04T05:38:53.533Z,96930.78
2022-08-04T05:41:21.563Z,96938.56
2022-08-04T05:43:48.989Z,96943.56
2022-08-04T05:46:16.633Z,96936.75
2022-08-04T05:48:45.859Z,96937.50
2022-08-04T05:51:12.753Z,96944.53
2022-08-04T05:53:42.984Z,96943.88
2022-08-04T05:56:09.694Z,96944.97
2022-08-04T05:58:36.953Z,96944.25
2022-08-04T06:01:04.810Z,96940.22
2022-08-04T06:03:32.037Z,96943.81
2022-08-04T06:05:59.957Z,96938.97
2022-08-04T06:08:26.797Z,96937.72
2022-08-04T06:10:54.221Z,96939.97
2022-08-04T06:13:48.957Z,96942.19
2022-08-04T06:16:29.029Z,96946.56
2022-08-04T06:20:01.315Z,96943.22
2022-08-04T06:21:50.435Z,96935.78
2022-08-04T06:24:19.622Z,96948.00
2022-08-04T06:26:48.759Z,96945.84
2022-08-04T06:29:24.840Z,96947.28
2022-08-04T06:32:27.670Z,96946.00
2022-08-04T06:34:47.878Z,96948.94
2022-08-04T06:37:43.053Z,96955.25
2022-08-04T06:40:15.518Z,96951.16
2022-08-04T06:42:52.858Z,96952.69
2022-08-04T06:45:20.859Z,96952.81
2022-08-04T06:47:48.858Z,96955.69
2022-08-04T06:51:24.504Z,96960.66
2022-08-04T06:53:02.634Z,96959.38
2022-08-04T06:55:29.627Z,96962.91
2022-08-04T06:58:00.913Z,96953.22
2022-08-04T07:00:30.145Z,96951.28
2022-08-04T07:02:57.715Z,96948.59
2022-08-04T07:05:24.860Z,96952.19
2022-08-04T07:07:58.060Z,96955.06
2022-08-04T07:10:29.728Z,96952.38
2022-08-04T07:12:57.987Z,96949.72
2022-08-04T07:15:25.803Z,96946.31
2022-08-04T07:17:53.464Z,96946.44
2022-08-04T07:20:34.023Z,96949.31
2022-08-04T07:23:02.594Z,96949.41
2022-08-04T07:25:59.141Z,96950.19
2022-08-04T07:28:16.268Z,96943.31
2022-08-04T07:30:44.314Z,96950.38
2022-08-04T07:33:11.502Z,96947.03
2022-08-04T07:36:10.153Z,96948.53
2022-08-04T07:38:27.576Z,96952.84
2022-08-04T07:40:55.507Z,96946.69
2022-08-04T07:43:23.616Z,96946.06
2022-08-04T07:45:50.351Z,96947.53
2022-08-04T07:48:18.996Z,96951.13
2022-08-04T07:50:47.332Z,96947.03
2022-08-04T07:53:52.889Z,96940.84
2022-08-04T07:56:01.925Z,96945.13
2022-08-04T07:58:30.342Z,96951.47
2022-08-04T08:00:57.887Z,96939.69
2022-08-04T08:03:25.733Z,96939.09
2022-08-04T08:06:16.900Z,96938.50
2022-08-04T08:08:40.170Z,96944.84
2022-08-04T08:11:08.029Z,96942.88
2022-08-04T08:13:35.172Z,96936.69
2022-08-04T08:16:03.013Z,96943.06
2022-08-04T08:18:31.056Z,96935.47
2022-08-04T08:20:58.194Z,96933.47
2022-08-04T08:23:25.847Z,96940.53
2022-08-04T08:25:52.762Z,96936.44
2022-08-04T08:28:19.783Z,96935.84
2022-08-04T08:30:52.838Z,96933.81
2022-08-04T08:33:21.040Z,96938.78
2022-08-04T08:36:01.959Z,96939.56
2022-08-04T08:38:41.292Z,96933.34
2022-08-04T08:41:32.925Z,96943.91
2022-08-04T08:44:36.382Z,96934.22
2022-08-04T08:47:07.026Z,96930.81
2022-08-04T08:50:12.254Z,96935.88
2022-08-04T08:53:31.086Z,96928.34
2022-08-04T08:56:16.650Z,96926.34
2022-08-04T08:59:04.838Z,96926.44
2022-08-04T09:01:56.174Z,96933.50
2022-08-04T09:05:00.828Z,96922.34
2022-08-04T09:07:33.190Z,96930.84
2022-08-04T09:10:02.977Z,96932.97
2022-08-04T09:13:26.846Z,96933.69
2022-08-04T09:16:12.164Z,96930.94
2022-08-04T09:18:47.152Z,96933.06
2022-08-04T09:21:26.286Z,96947.84
2022-08-04T09:24:35.442Z,96944.47
2022-08-04T09:27:19.556Z,96936.78
2022-08-04T09:29:57.087Z,96937.47
2022-08-04T09:32:28.887Z,96940.31
2022-08-04T09:35:14.969Z,96944.53
2022-08-04T09:37:45.958Z,96945.25
2022-08-04T09:40:53.884Z,96950.91
2022-08-04T09:43:59.488Z,96953.81
2022-08-04T09:46:41.015Z,96939.06
2022-08-04T09:49:23.555Z,96944.69
2022-08-04T09:52:01.436Z,96948.88
2022-08-04T09:54:52.931Z,96942.59
2022-08-04T09:57:47.820Z,96942.59
2022-08-04T10:00:17.115Z,96939.06
2022-08-04T10:02:56.808Z,96939.75
2022-08-04T10:05:26.752Z,96943.97
2022-08-04T10:08:22.903Z,96933.47
2022-08-04T10:10:49.713Z,96934.16
2022-08-04T10:13:32.460Z,96932.06
2022-08-04T10:16:12.324Z,96929.25
2022-08-04T10:18:57.826Z,96921.50
2022-08-04T10:21:59.580Z,96927.13
2022-08-04T10:24:53.934Z,96914.44
2022-08-04T10:27:26.083Z,96928.44
2022-08-04T10:29:55.317Z,96915.03
2022-08-04T10:32:26.895Z,96907.28
2022-08-04T10:35:07.381Z,96905.88
2022-08-04T10:37:54.607Z,96906.50
2022-08-04T10:40:36.567Z,96914.13
2022-08-04T10:43:25.939Z,96904.94
2022-08-04T10:45:58.040Z,96893.66
2022-08-04T10:48:34.142Z,96898.44
2022-08-04T10:51:16.991Z,96909.56
2022-08-04T10:53:44.539Z,96898.34
2022-08-04T10:56:16.256Z,96920.97
2022-08-04T10:58:50.929Z,96897.00
2022-08-04T11:02:00.119Z,96896.97
2022-08-04T11:04:26.718Z,96894.00
2022-08-04T11:06:54.591Z,96890.38
2022-08-04T11:09:21.995Z,96889.59
2022-08-04T11:12:02.835Z,96895.28
2022-08-04T11:14:35.124Z,96885.44
2022-08-04T11:17:06.891Z,96881.97
2022-08-04T11:19:52.803Z,96884.78
2022-08-04T11:22:29.589Z,96885.28
2022-08-04T11:25:26.379Z,96880.88
2022-08-04T11:28:19.597Z,96885.06
2022-08-04T11:30:57.350Z,96888.56
2022-08-04T11:33:35.975Z,96890.06
2022-08-04T11:36:14.671Z,96882.25
2022-08-04T11:38:51.846Z,96880.84
2022-08-04T11:41:23.611Z,96883.78
2022-08-04T11:44:03.165Z,96879.63
2022-08-04T11:46:38.235Z,96881.09
2022-08-04T11:49:16.303Z,96878.97
2022-08-04T11:51:45.754Z,96878.69
2022-08-04T11:54:13.042Z,96886.41
2022-08-04T11:56:40.209Z,96880.66
2022-08-04T11:59:12.815Z,96880.66
2022-08-04T12:01:57.358Z,96880.75
2022-08-04T12:04:59.721Z,96872.22
2022-08-04T12:07:43.680Z,96876.41
2022-08-04T12:10:48.829Z,96878.56
2022-08-04T12:13:26.013Z,96873.00
2022-08-04T12:16:14.877Z,96873.78
2022-08-04T12:18:53.432Z,96877.97
2022-08-04T12:21:32.015Z,96874.44
2022-08-04T12:24:06.414Z,96861.03
2022-08-04T12:26:38.441Z,96857.53
2022-08-04T12:29:10.155Z,96865.97
2022-08-04T12:31:57.444Z,96859.63
2022-08-04T12:34:32.728Z,96856.75
2022-08-04T12:37:05.189Z,96845.34
2022-08-04T12:39:32.040Z,96857.97
2022-08-04T12:42:04.711Z,96831.09
2022-08-04T12:44:38.715Z,96837.88
2022-08-04T12:47:28.009Z,96851.13
2022-08-04T12:50:01.303Z,96846.84
2022-08-04T12:55:24.012Z,96844.69
2022-08-04T12:57:52.149Z,96846.84
2022-08-04T13:00:34.239Z,96846.19
2022-08-04T13:03:09.734Z,96841.25
2022-08-04T13:05:41.836Z,96837.63
2022-08-04T13:08:10.588Z,96828.47
2022-08-04T13:10:38.849Z,96836.94
2022-08-04T13:13:05.658Z,96839.69
2022-08-04T13:15:33.648Z,96835.44
2022-08-04T13:18:15.581Z,96834.00
2022-08-04T13:20:43.917Z,96835.41
2022-08-04T13:23:14.594Z,96833.69
2022-08-04T13:26:42.336Z,96828.56
2022-08-04T13:28:43.850Z,96826.72
2022-08-04T13:31:17.126Z,96825.97
2022-08-04T13:33:47.418Z,96812.53
2022-08-04T13:36:15.275Z,96821.72
2022-08-04T13:39:04.119Z,96813.31
2022-08-04T13:41:31.464Z,96818.31
2022-08-04T13:44:17.947Z,96819.81
2022-08-04T13:46:51.328Z,96812.13
2022-08-04T13:52:10.861Z,96814.97
2022-08-04T13:54:43.936Z,96808.06
2022-08-04T13:57:24.225Z,96811.63
2022-08-04T13:59:53.811Z,96815.66
2022-08-04T14:02:42.278Z,96810.53
2022-08-04T14:05:18.394Z,96804.25
2022-08-04T14:07:49.094Z,96802.94
2022-08-04T14:10:15.818Z,96794.44
2022-08-04T14:12:51.117Z,96790.25
2022-08-04T14:16:02.950Z,96790.84
2022-08-04T14:18:35.053Z,96791.44
2022-08-04T14:21:07.590Z,96785.81
2022-08-04T14:23:50.735Z,96785.81
2022-08-04T14:26:31.734Z,96781.44
2022-08-04T14:29:28.214Z,96791.22
2022-08-04T14:32:05.368Z,96779.72
2022-08-04T14:34:41.448Z,96788.59
2022-08-04T14:37:17.528Z,96781.25
2022-08-04T14:40:17.888Z,96786.19
2022-08-04T14:42:41.310Z,96775.66
2022-08-04T14:45:08.649Z,96776.28
2022-08-04T14:47:52.856Z,96780.38
2022-08-04T14:50:20.697Z,96777.44
2022-08-04T14:52:47.467Z,96769.25
2022-08-04T14:55:21.561Z,96778.97
2022-08-04T14:58:35.741Z,96780.88
2022-08-04T15:00:37.137Z,96778.63
2022-08-04T15:03:08.917Z,96774.47
2022-08-04T15:06:00.463Z,96771.72
2022-08-04T15:08:31.652Z,96785.03
2022-08-04T15:11:02.520Z,96778.03
2022-08-04T15:13:32.038Z,96778.16
2022-08-04T15:16:07.595Z,96782.56
2022-08-04T15:18:37.122Z,96778.44
2022-08-04T15:21:04.771Z,96778.41
2022-08-04T15:23:38.727Z,96779.06
2022-08-04T15:26:09.500Z,96779.75
2022-08-04T15:28:38.713Z,96778.91
2022-08-04T15:32:06.355Z,96773.84
2022-08-04T15:33:55.258Z,96769.41
2022-08-04T15:36:26.621Z,96778.63
2022-08-04T15:38:58.658Z,96773.69
2022-08-04T15:41:54.961Z,96769.41
2022-08-04T15:44:51.635Z,96771.59
2022-08-04T15:47:18.740Z,96768.94
2022-08-04T15:49:45.503Z,96759.88
2022-08-04T15:52:16.777Z,96762.84
2022-08-04T15:54:52.161Z,96764.28
2022-08-04T15:57:59.543Z,96759.31
2022-08-04T16:00:29.023Z,96757.94
2022-08-04T16:02:55.960Z,96757.94
2022-08-04T16:05:23.455Z,96760.13
2022-08-04T16:07:57.647Z,96760.22
2022-08-04T16:10:30.431Z,96753.88
2022-08-04T16:12:59.561Z,96756.63
2022-08-04T16:15:43.217Z,96751.69
2022-08-04T16:18:25.487Z,96745.41
2022-08-04T16:20:59.300Z,96744.69
2022-08-04T16:23:56.982Z,96758.16
2022-08-04T16:26:37.802Z,96751.16
2022-08-04T16:29:34.445Z,96747.66
2022-08-04T16:32:04.632Z,96754.84
2022-08-04T16:34:48.373Z,96747.84
2022-08-04T16:37:16.765Z,96755.66
2022-08-04T16:39:50.038Z,96747.97
2022-08-04T16:42:33.181Z,96756.53
2022-08-04T16:45:01.969Z,96748.06
2022-08-04T16:47:47.065Z,96751.63
2022-08-04T16:50:18.010Z,96756.50
2022-08-04T16:52:48.851Z,96756.53
2022-08-04T16:55:16.534Z,96754.44
2022-08-04T16:57:47.077Z,96752.44
2022-08-04T17:00:14.661Z,96756.00
2022-08-04T17:02:41.719Z,96750.44
2022-08-04T17:05:38.587Z,96752.63
2022-08-04T17:08:29.212Z,96758.41
2022-08-04T17:10:55.437Z,96751.38
2022-08-04T17:14:02.707Z,96761.34
2022-08-04T17:16:19.334Z,96757.13
2022-08-04T17:18:49.034Z,96754.38
2022-08-04T17:21:25.110Z,96754.44
2022-08-04T17:24:13.211Z,96756.63
2022-08-04T17:26:52.011Z,96759.50
2022-08-04T17:29:42.844Z,96748.97
2022-08-04T17:32:16.372Z,96752.56
2022-08-04T17:34:49.878Z,96749.81
2022-08-04T17:37:40.036Z,96746.34
2022-08-04T17:40:11.294Z,96756.97
2022-08-04T17:42:39.865Z,96753.53
2022-08-04T17:45:49.146Z,96752.22
2022-08-04T17:48:09.184Z,96757.19
2022-08-04T17:50:36.735Z,96754.44
2022-08-04T17:53:12.121Z,96755.19
2022-08-04T17:55:49.607Z,96749.66
2022-08-04T17:58:22.998Z,96752.56
2022-08-04T18:01:23.156Z,96756.19
2022-08-04T18:03:53.330Z,96760.44
2022-08-04T18:06:22.841Z,96762.63
2022-08-04T18:08:57.898Z,96765.53
2022-08-04T18:11:29.713Z,96755.69
2022-08-04T18:14:10.468Z,96760.00
2022-08-04T18:16:46.992Z,96767.84
2022-08-04T18:19:15.608Z,96765.06
2022-08-04T18:22:00.564Z,96765.78
2022-08-04T18:24:35.934Z,96755.97
2022-08-04T18:27:22.373Z,96767.97
2022-08-04T18:30:31.127Z,96763.09
2022-08-04T18:32:51.277Z,96768.03
2022-08-04T18:35:25.129Z,96760.34
2022-08-04T18:38:23.440Z,96763.94
2022-08-04T18:40:52.955Z,96763.97
2022-08-04T18:43:27.889Z,96758.41
2022-08-04T18:45:57.512Z,96759.88
2022-08-04T18:48:36.578Z,96762.72
2022-08-04T18:51:22.370Z,96752.91
2022-08-04T18:56:37.250Z,96757.91
2022-08-04T18:59:05.280Z,96762.25
2022-08-04T19:02:12.692Z,96756.66
2022-08-04T19:04:32.945Z,96766.63
2022-08-04T19:07:29.593Z,96759.63
2022-08-04T19:09:53.915Z,96770.25
2022-08-04T19:12:26.830Z,96765.34
2022-08-04T19:14:57.985Z,96780.94
2022-08-04T19:17:53.606Z,96779.56
2022-08-04T19:20:24.201Z,96781.69
2022-08-04T19:24:28.149Z,96788.78
2022-08-04T19:25:58.477Z,96792.38
2022-08-04T19:28:29.946Z,96792.41
2022-08-04T19:31:01.735Z,96793.91
2022-08-04T19:33:55.570Z,96798.91
2022-08-04T19:36:17.246Z,96801.81
2022-08-04T19:38:44.757Z,96792.69
2022-08-04T19:41:14.248Z,96805.38
2022-08-04T19:46:29.180Z,96816.00
2022-08-04T19:48:59.400Z,96814.66
2022-08-04T19:51:29.250Z,96809.75
2022-08-04T19:54:03.984Z,96819.56
2022-08-04T19:56:40.270Z,96827.34
2022-08-04T19:59:07.845Z,96828.06
2022-08-04T20:01:43.722Z,96821.81
2022-08-04T20:04:13.268Z,96824.72
2022-08-04T20:06:39.962Z,96829.66
2022-08-04T20:09:24.637Z,96835.34
2022-08-04T20:11:54.360Z,96838.19
2022-08-04T20:14:31.418Z,96843.13
2022-08-04T20:17:01.096Z,96840.31
2022-08-04T20:19:27.770Z,96837.53
2022-08-04T20:21:57.058Z,96833.34
2022-08-04T20:24:38.229Z,96842.53
2022-08-04T20:27:15.826Z,96845.41
2022-08-04T20:32:34.366Z,96867.88
2022-08-04T20:35:01.849Z,96887.53
2022-08-04T20:37:54.754Z,96893.16
2022-08-04T20:40:15.494Z,96889.69
2022-08-04T20:42:44.877Z,96900.22
2022-08-04T20:45:16.180Z,96898.81
2022-08-04T20:47:53.066Z,96901.63
2022-08-04T20:50:32.765Z,96901.66
2022-08-04T20:53:03.242Z,96898.91
2022-08-04T20:55:54.723Z,96899.56
2022-08-04T20:58:27.507Z,96900.94
2022-08-04T21:00:56.045Z,96905.91
2022-08-04T21:03:49.559Z,96910.84
2022-08-04T21:06:10.688Z,96912.97
2022-08-04T21:08:37.730Z,96911.56
2022-08-04T21:11:04.613Z,96918.63
2022-08-04T21:13:51.997Z,96917.91
2022-08-04T21:16:55.996Z,96915.81
2022-08-04T21:19:13.025Z,96923.50
2022-08-04T21:21:40.806Z,96931.97
2022-08-04T21:24:08.077Z,96938.28
2022-08-04T21:26:35.583Z,96937.59
2022-08-04T21:29:04.658Z,96935.50
2022-08-04T21:31:36.745Z,96939.03
2022-08-04T21:34:35.853Z,96941.84
2022-08-04T21:37:04.558Z,96943.94
2022-08-04T21:39:32.570Z,96955.88
2022-08-04T21:42:28.789Z,96947.47
2022-08-04T21:44:46.278Z,96953.09
2022-08-04T21:47:16.945Z,96952.41
2022-08-04T21:49:56.631Z,96957.31
2022-08-04T21:52:24.744Z,96965.06
2022-08-04T21:54:54.694Z,96958.72
2022-08-04T21:57:24.911Z,96962.25
2022-08-04T21:59:52.606Z,96965.75
2022-08-04T22:02:19.423Z,96972.78
2022-08-04T22:04:48.279Z,96963.63
2022-08-04T22:07:16.690Z,96962.91
2022-08-04T22:10:00.091Z,96956.59
2022-08-04T22:12:27.232Z,96934.81
2022-08-04T22:14:57.746Z,96922.91
2022-08-04T22:17:26.847Z,96910.25
2022-08-04T22:20:02.021Z,96910.97
2022-08-04T22:22:29.997Z,96907.47
2022-08-04T22:25:01.200Z,96908.88
2022-08-04T22:27:47.841Z,96908.19
2022-08-04T22:30:22.835Z,96918.72
2022-08-04T22:32:49.639Z,96936.97
2022-08-04T22:35:43.085Z,96971.38
2022-08-04T22:38:22.292Z,96972.09
2022-08-04T22:41:08.962Z,96985.41
2022-08-04T22:43:37.590Z,97007.19
2022-08-04T22:46:32.322Z,97016.31
2022-08-04T22:48:59.054Z,97007.22
2022-08-04T22:51:27.047Z,97014.22
2022-08-04T22:53:54.183Z,97014.22
2022-08-04T22:56:38.124Z,97023.34
2022-08-04T22:59:06.842Z,97005.78
2022-08-04T23:02:00.374Z,97010.00
2022-08-04T23:04:24.735Z,96995.97
2022-08-04T23:06:54.337Z,96981.94
2022-08-04T23:09:22.241Z,96980.50
2022-08-04T23:12:24.563Z,96970.69
2022-08-04T23:14:53.544Z,96967.19
2022-08-04T23:17:22.129Z,96965.78
2022-08-04T23:19:57.847Z,96963.66
2022-08-04T23:22:41.069Z,96960.84
2022-08-04T23:25:15.173Z,96948.91
2022-08-04T23:27:48.256Z,96955.22
2022-08-04T23:30:29.881Z,96941.19
2022-08-04T23:32:57.226Z,96936.28
2022-08-04T23:35:24.074Z,96931.34
2022-08-04T23:37:56.517Z,96925.75
2022-08-04T23:40:33.348Z,96915.91
2022-08-04T23:43:17.585Z,96902.56
2022-08-04T23:46:06.468Z,96895.53
2022-08-04T23:48:33.354Z,96890.63
2022-08-04T23:51:13.775Z,96897.66
2022-08-04T23:54:03.093Z,96899.75
2022-08-04T23:56:29.610Z,96890.63
2022-08-04T23:58:56.262Z,96888.50
